Terminal Aerodrome Forecast
Issued by NWS Chicago, IL

Home | Current Version | Previous Version | Text Only | Print | Product List | Glossary On
Versions: 1 2 3 4 5 6 7 8 9 10 11 12 13 14 15 16 17 18 19 20 21
059
FTUS43 KLOT 301435 AAA
TAFRFD
TAF AMD
KRFD 301435Z 3015/0112 03011KT P6SM VCSH BKN009 OVC013
      TEMPO 3015/3017 4SM -DZ BR OVC008
     FM301800 05014G22KT P6SM VCSH SCT010 OVC015
     FM010000 04010KT P6SM OVC015
     FM010400 02008KT P6SM VCSH OVC010=

USA.gov is the U.S. government's official web portal to all federal, state and local government web resources and services.